createdAt,value
2018-03-31T00:00:43.635Z,37.46
2018-03-31T00:03:15.109Z,37.56
2018-03-31T00:05:46.185Z,37.52
2018-03-31T00:08:17.376Z,37.10
2018-03-31T00:10:48.629Z,37.14
2018-03-31T00:13:19.104Z,37.14
2018-03-31T00:15:51.006Z,37.62
2018-03-31T00:18:21.954Z,37.54
2018-03-31T00:20:52.889Z,37.63
2018-03-31T00:25:28.271Z,37.51
2018-03-31T00:27:59.657Z,37.60
2018-03-31T00:30:30.135Z,37.20
2018-03-31T00:33:00.830Z,36.91
2018-03-31T00:35:32.185Z,37.21
2018-03-31T00:38:02.431Z,37.41
2018-03-31T00:40:33.990Z,37.58
2018-03-31T00:43:05.286Z,36.05
2018-03-31T00:45:35.845Z,36.67
2018-03-31T00:48:07.226Z,36.95
2018-03-31T00:50:37.442Z,36.50
2018-03-31T00:53:07.842Z,36.20
2018-03-31T00:57:26.875Z,35.06
2018-03-31T00:59:57.285Z,34.73
2018-03-31T01:02:28.298Z,34.87
2018-03-31T01:04:58.758Z,34.34
2018-03-31T01:09:26.008Z,33.42
2018-03-31T01:11:56.280Z,33.14
2018-03-31T01:14:26.654Z,32.96
2018-03-31T01:16:56.315Z,32.80
2018-03-31T01:19:26.659Z,32.89
2018-03-31T01:21:57.214Z,32.89
2018-03-31T01:24:27.443Z,32.86
2018-03-31T01:27:42.927Z,32.69
2018-03-31T01:30:13.264Z,32.84
2018-03-31T01:32:43.671Z,32.71
2018-03-31T01:35:13.410Z,32.71
2018-03-31T01:37:43.664Z,32.67
2018-03-31T01:40:13.363Z,32.84
2018-03-31T01:42:43.671Z,32.86
2018-03-31T01:45:13.585Z,32.94
2018-03-31T01:47:43.797Z,33.15
2018-03-31T01:50:14.203Z,33.30
2018-03-31T01:52:44.577Z,33.19
2018-03-31T01:57:54.852Z,33.26
2018-03-31T02:00:25.847Z,33.25
2018-03-31T02:02:56.297Z,33.36
2018-03-31T02:05:26.748Z,33.44
2018-03-31T02:07:57.753Z,33.35
2018-03-31T02:10:28.287Z,33.35
2018-03-31T02:14:17.637Z,33.56
2018-03-31T02:16:48.767Z,33.57
2018-03-31T02:19:19.256Z,33.74
2018-03-31T02:21:49.835Z,34.27
2018-03-31T02:24:20.295Z,34.08
2018-03-31T02:26:50.439Z,33.80
2018-03-31T02:29:20.823Z,34.12
2018-03-31T02:31:51.275Z,34.18
2018-03-31T02:34:21.431Z,34.26
2018-03-31T02:38:03.104Z,34.98
2018-03-31T02:40:33.590Z,35.30
2018-03-31T02:45:02.871Z,35.28
2018-03-31T02:47:33.284Z,35.04
2018-03-31T02:50:03.627Z,35.44
2018-03-31T02:52:33.958Z,35.82
2018-03-31T02:55:05.305Z,35.92
2018-03-31T02:57:36.711Z,36.05
2018-03-31T03:00:06.397Z,36.04
2018-03-31T03:02:38.296Z,36.00
2018-03-31T03:09:03.430Z,36.06
2018-03-31T03:11:33.695Z,35.89
2018-03-31T03:14:04.655Z,35.97
2018-03-31T03:16:37.956Z,35.94
2018-03-31T03:19:08.292Z,35.66
2018-03-31T03:21:38.871Z,35.81
2018-03-31T03:24:09.956Z,35.64
2018-03-31T03:26:40.300Z,35.82
2018-03-31T03:30:01.888Z,35.82
2018-03-31T03:32:32.311Z,35.80
2018-03-31T03:35:02.793Z,35.87
2018-03-31T03:37:33.687Z,35.98
2018-03-31T03:40:03.795Z,36.11
2018-03-31T03:42:33.683Z,36.11
2018-03-31T03:45:03.482Z,36.14
2018-03-31T03:47:33.414Z,36.14
2018-03-31T03:50:03.871Z,36.17
2018-03-31T03:53:09.155Z,36.30
2018-03-31T03:57:51.967Z,36.22
2018-03-31T04:00:22.273Z,36.51
2018-03-31T04:02:52.324Z,36.86
2018-03-31T04:05:23.603Z,36.99
2018-03-31T04:07:53.800Z,37.06
2018-03-31T04:10:23.409Z,38.15
2018-03-31T04:12:53.814Z,37.15
2018-03-31T04:15:24.406Z,36.99
2018-03-31T04:17:54.785Z,36.53
2018-03-31T04:20:25.232Z,36.87
2018-03-31T04:22:55.622Z,37.91
2018-03-31T04:28:10.028Z,37.17
2018-03-31T04:30:40.416Z,37.85
2018-03-31T04:33:10.855Z,36.84
2018-03-31T04:36:51.026Z,37.00
2018-03-31T04:39:22.431Z,37.14
2018-03-31T04:41:52.369Z,37.13
2018-03-31T04:44:22.707Z,37.56
2018-03-31T04:46:52.349Z,36.87
2018-03-31T04:49:22.716Z,36.82
2018-03-31T04:58:40.149Z,36.96
2018-03-31T05:01:10.302Z,36.84
2018-03-31T05:03:41.711Z,37.04
2018-03-31T05:06:11.680Z,37.32
2018-03-31T05:08:41.368Z,36.86
2018-03-31T05:11:11.712Z,37.81
2018-03-31T05:13:41.893Z,37.97
2018-03-31T05:16:12.506Z,36.87
2018-03-31T05:18:42.723Z,37.25
2018-03-31T05:21:12.369Z,36.95
2018-03-31T05:23:42.807Z,37.00
2018-03-31T05:26:13.310Z,36.78
2018-03-31T05:28:43.645Z,36.54
2018-03-31T05:31:13.716Z,36.65
2018-03-31T05:33:44.913Z,36.83
2018-03-31T05:36:15.300Z,36.69
2018-03-31T05:38:45.632Z,36.60
2018-03-31T05:41:15.740Z,36.77
2018-03-31T05:43:45.413Z,36.75
2018-03-31T05:46:15.803Z,36.80
2018-03-31T05:48:46.309Z,36.82
2018-03-31T05:51:16.730Z,36.97
2018-03-31T05:53:46.408Z,36.74
2018-03-31T05:56:16.947Z,36.91
2018-03-31T05:58:47.329Z,36.76
2018-03-31T06:01:17.849Z,36.86
2018-03-31T06:03:48.198Z,36.98
2018-03-31T06:06:18.626Z,36.75
2018-03-31T06:08:49.725Z,36.69
2018-03-31T06:11:19.915Z,36.89
2018-03-31T06:13:50.354Z,37.04
2018-03-31T06:16:20.899Z,36.86
2018-03-31T06:18:51.233Z,36.99
2018-03-31T06:21:21.748Z,36.98
2018-03-31T06:23:51.699Z,37.06
2018-03-31T06:26:21.473Z,37.11
2018-03-31T06:28:51.757Z,36.38
2018-03-31T06:31:21.459Z,36.39
2018-03-31T06:33:51.824Z,36.66
2018-03-31T06:36:22.447Z,36.99
2018-03-31T06:38:53.730Z,36.49
2018-03-31T06:41:23.479Z,36.38
2018-03-31T06:43:54.014Z,36.54
2018-03-31T06:46:24.365Z,36.62
2018-03-31T06:48:54.922Z,36.90
2018-03-31T06:51:25.331Z,36.31
2018-03-31T06:53:56.147Z,36.70
2018-03-31T06:56:26.760Z,36.93
2018-03-31T06:58:56.483Z,36.94
2018-03-31T07:01:26.758Z,37.29
2018-03-31T07:03:56.488Z,36.95
2018-03-31T07:06:26.874Z,36.89
2018-03-31T07:08:57.188Z,37.23
2018-03-31T07:11:27.748Z,37.11
2018-03-31T07:15:55.470Z,36.79
2018-03-31T07:20:49.947Z,37.05
2018-03-31T07:24:12.041Z,36.85
2018-03-31T07:26:42.943Z,37.01
2018-03-31T07:29:13.911Z,37.19
2018-03-31T07:31:44.834Z,37.14
2018-03-31T07:34:15.770Z,37.21
2018-03-31T07:36:46.165Z,36.72
2018-03-31T07:39:16.925Z,37.28
2018-03-31T07:41:48.094Z,37.46
2018-03-31T07:44:18.892Z,36.57
2018-03-31T07:49:19.057Z,37.23
2018-03-31T07:51:50.443Z,37.44
2018-03-31T07:54:21.770Z,36.56
2018-03-31T07:56:51.980Z,36.45
2018-03-31T07:59:22.902Z,36.39
2018-03-31T08:01:54.120Z,36.52
2018-03-31T08:04:25.135Z,37.07
2018-03-31T08:06:55.878Z,36.53
2018-03-31T08:09:26.983Z,36.46
2018-03-31T08:11:58.132Z,37.56
2018-03-31T08:14:29.042Z,36.43
2018-03-31T08:16:59.814Z,37.72
2018-03-31T08:19:30.056Z,38.15
2018-03-31T08:22:00.903Z,37.07
2018-03-31T08:24:31.816Z,37.38
2018-03-31T08:27:02.042Z,36.26
2018-03-31T08:29:33.075Z,36.81
2018-03-31T08:32:04.182Z,37.33
2018-03-31T08:34:35.273Z,36.56
2018-03-31T08:37:06.952Z,36.77
2018-03-31T08:39:37.949Z,36.08
2018-03-31T08:42:08.895Z,37.46
2018-03-31T08:44:40.104Z,37.62
2018-03-31T08:47:11.111Z,37.17
2018-03-31T08:49:41.875Z,36.90
2018-03-31T08:52:13.103Z,37.03
2018-03-31T08:54:44.112Z,36.56
2018-03-31T08:57:15.007Z,36.69
2018-03-31T08:59:46.181Z,36.83
2018-03-31T09:02:17.128Z,36.55
2018-03-31T09:04:47.981Z,35.92
2018-03-31T09:07:18.768Z,35.41
2018-03-31T09:09:50.059Z,35.37
2018-03-31T09:12:21.071Z,35.08
2018-03-31T09:14:52.233Z,35.40
2018-03-31T09:17:23.173Z,35.12
2018-03-31T09:19:54.296Z,35.40
2018-03-31T09:22:25.740Z,36.42
2018-03-31T09:24:56.515Z,36.20
2018-03-31T09:27:27.966Z,36.13
2018-03-31T09:29:59.098Z,35.20
2018-03-31T09:32:30.020Z,35.08
2018-03-31T09:35:01.133Z,35.24
2018-03-31T09:37:31.962Z,36.01
2018-03-31T09:40:03.108Z,36.02
2018-03-31T09:42:33.772Z,36.52
2018-03-31T09:45:05.074Z,36.78
2018-03-31T09:47:36.094Z,36.82
2018-03-31T09:50:07.014Z,36.53
2018-03-31T09:52:38.165Z,35.21
2018-03-31T09:55:08.903Z,34.61
2018-03-31T09:57:40.714Z,34.65
2018-03-31T10:00:12.230Z,35.32
2018-03-31T10:02:43.783Z,34.98
2018-03-31T10:05:15.103Z,35.57
2018-03-31T10:07:46.242Z,36.82
2018-03-31T10:10:17.312Z,36.71
2018-03-31T10:12:49.146Z,36.58
2018-03-31T10:15:20.108Z,35.76
2018-03-31T10:17:51.000Z,35.92
2018-03-31T10:20:23.373Z,36.11
2018-03-31T10:22:55.040Z,36.06
2018-03-31T10:25:26.071Z,36.14
2018-03-31T10:27:56.797Z,35.53
2018-03-31T10:30:27.087Z,35.73
2018-03-31T10:32:58.202Z,35.71
2018-03-31T10:35:29.255Z,35.17
2018-03-31T10:38:00.297Z,35.21
2018-03-31T10:40:31.291Z,35.05
2018-03-31T10:43:01.983Z,35.74
2018-03-31T10:45:32.789Z,36.04
2018-03-31T10:48:03.803Z,35.90
2018-03-31T10:50:34.153Z,36.19
2018-03-31T10:53:04.886Z,35.96
2018-03-31T10:55:36.111Z,35.93
2018-03-31T10:58:07.079Z,35.77
2018-03-31T11:00:37.813Z,35.02
2018-03-31T11:03:08.991Z,35.00
2018-03-31T11:05:39.802Z,35.85
2018-03-31T11:08:09.945Z,36.82
2018-03-31T11:10:41.132Z,36.71
2018-03-31T11:13:12.250Z,36.86
2018-03-31T11:16:11.937Z,36.61
2018-03-31T11:18:43.225Z,35.41
2018-03-31T11:21:14.102Z,35.66
2018-03-31T11:23:45.065Z,35.07
2018-03-31T11:26:16.422Z,35.03
2018-03-31T11:28:47.426Z,36.15
2018-03-31T11:31:18.990Z,36.55
2018-03-31T11:33:50.038Z,36.47
2018-03-31T11:36:21.506Z,36.77
2018-03-31T11:38:53.212Z,36.78
2018-03-31T11:41:24.161Z,36.59
2018-03-31T11:43:55.102Z,36.53
2018-03-31T11:46:26.047Z,36.06
2018-03-31T11:48:57.125Z,36.32
2018-03-31T11:51:28.129Z,36.62
2018-03-31T11:53:58.977Z,36.54
2018-03-31T11:56:29.919Z,35.12
2018-03-31T11:59:01.728Z,36.03
2018-03-31T12:01:32.818Z,35.62
2018-03-31T12:04:03.012Z,36.06
2018-03-31T12:06:33.814Z,35.66
2018-03-31T12:09:04.424Z,35.21
2018-03-31T12:11:36.247Z,35.45
2018-03-31T12:14:06.994Z,36.10
2018-03-31T12:16:38.433Z,36.19
2018-03-31T12:19:09.725Z,36.23
2018-03-31T12:21:41.025Z,35.75
2018-03-31T12:24:12.182Z,35.32
2018-03-31T12:26:43.268Z,35.75
2018-03-31T12:29:14.064Z,35.77
2018-03-31T12:31:45.195Z,35.09
2018-03-31T12:34:16.235Z,35.76
2018-03-31T12:36:47.263Z,36.55
2018-03-31T12:39:18.201Z,36.61
2018-03-31T12:41:49.167Z,36.44
2018-03-31T12:44:20.306Z,36.41
2018-03-31T12:46:51.829Z,35.42
2018-03-31T12:49:22.064Z,35.88
2018-03-31T12:51:53.333Z,35.47
2018-03-31T12:54:24.262Z,35.50
2018-03-31T12:56:55.202Z,35.22
2018-03-31T12:59:26.304Z,35.98
2018-03-31T13:01:57.294Z,36.33
2018-03-31T13:04:28.216Z,36.54
2018-03-31T13:06:59.005Z,36.49
2018-03-31T13:09:29.822Z,36.45
2018-03-31T13:12:01.253Z,36.38
2018-03-31T13:14:32.009Z,36.25
2018-03-31T13:17:03.124Z,35.95
2018-03-31T13:19:34.229Z,36.00
2018-03-31T13:22:05.009Z,36.38
2018-03-31T13:24:37.033Z,35.22
2018-03-31T13:27:07.929Z,36.07
2018-03-31T13:29:38.838Z,35.56
2018-03-31T13:32:09.977Z,35.85
2018-03-31T13:34:41.341Z,35.79
2018-03-31T13:37:12.991Z,35.36
2018-03-31T13:39:44.035Z,35.25
2018-03-31T13:42:15.180Z,35.29
2018-03-31T13:44:46.109Z,35.74
2018-03-31T13:47:17.252Z,35.91
2018-03-31T13:49:48.194Z,35.66
2018-03-31T13:52:19.146Z,35.85
2018-03-31T13:54:50.095Z,35.67
2018-03-31T13:57:20.831Z,35.73
2018-03-31T13:59:52.151Z,35.59
2018-03-31T14:02:22.931Z,35.75
2018-03-31T14:04:53.838Z,36.18
2018-03-31T14:07:24.098Z,36.42
2018-03-31T14:09:54.963Z,36.53
2018-03-31T14:12:26.263Z,36.39
2018-03-31T14:14:57.203Z,35.77
2018-03-31T14:17:28.143Z,35.67
2018-03-31T14:19:59.041Z,35.79
2018-03-31T14:22:30.198Z,35.74
2018-03-31T14:25:01.027Z,35.60
2018-03-31T14:27:32.119Z,35.54
2018-03-31T14:30:02.955Z,36.26
2018-03-31T14:32:34.092Z,35.80
2018-03-31T14:35:05.323Z,36.07
2018-03-31T14:37:36.447Z,36.71
2018-03-31T14:40:08.406Z,36.54
2018-03-31T14:42:40.022Z,36.44
2018-03-31T14:45:11.012Z,36.13
2018-03-31T14:47:42.283Z,36.29
2018-03-31T14:50:13.026Z,36.38
2018-03-31T14:52:45.034Z,36.51
2018-03-31T14:55:16.111Z,36.39
2018-03-31T14:57:47.251Z,36.30
2018-03-31T15:00:19.207Z,36.10
2018-03-31T15:02:50.040Z,36.34
2018-03-31T15:05:20.964Z,36.26
2018-03-31T15:07:51.872Z,36.32
2018-03-31T15:10:22.132Z,36.38
2018-03-31T15:12:53.594Z,36.53
2018-03-31T15:15:25.221Z,36.66
2018-03-31T15:17:56.107Z,36.49
2018-03-31T15:20:27.817Z,36.63
2018-03-31T15:22:59.118Z,36.63
2018-03-31T15:25:30.769Z,36.64
2018-03-31T15:31:20.861Z,36.75
2018-03-31T15:33:51.820Z,36.86
2018-03-31T15:36:22.266Z,37.04
2018-03-31T15:38:53.300Z,36.98
2018-03-31T15:41:24.052Z,37.05
2018-03-31T15:43:54.856Z,36.90
2018-03-31T15:46:25.821Z,37.00
2018-03-31T15:48:57.025Z,37.01
2018-03-31T15:51:28.201Z,37.00
2018-03-31T15:53:59.085Z,37.28
2018-03-31T15:56:30.277Z,37.54
2018-03-31T15:59:01.455Z,37.45
2018-03-31T16:01:32.610Z,37.64
2018-03-31T16:04:03.954Z,37.45
2018-03-31T16:06:34.186Z,37.69
2018-03-31T16:09:05.183Z,37.68
2018-03-31T16:11:36.124Z,37.61
2018-03-31T16:14:07.267Z,37.55
2018-03-31T16:16:38.121Z,37.43
2018-03-31T16:19:09.590Z,37.54
2018-03-31T16:21:41.041Z,37.46
2018-03-31T16:24:11.872Z,37.54
2018-03-31T16:26:42.111Z,37.53
2018-03-31T16:29:13.313Z,37.53
2018-03-31T16:31:44.252Z,37.54
2018-03-31T16:34:14.512Z,37.50
2018-03-31T16:36:45.959Z,37.38
2018-03-31T16:39:16.887Z,37.45
2018-03-31T16:41:46.602Z,37.49
2018-03-31T16:44:16.859Z,37.79
2018-03-31T16:46:46.529Z,37.74
2018-03-31T16:49:16.877Z,37.65
2018-03-31T16:51:46.531Z,37.86
2018-03-31T16:54:16.992Z,37.91
2018-03-31T16:56:47.515Z,37.87
2018-03-31T16:59:17.499Z,37.80
2018-03-31T17:01:47.880Z,37.75
2018-03-31T17:04:17.883Z,37.67
2018-03-31T17:06:47.588Z,37.64
2018-03-31T17:09:18.020Z,37.60
2018-03-31T17:11:48.327Z,37.54
2018-03-31T17:14:18.486Z,37.48
2018-03-31T17:16:49.350Z,37.19
2018-03-31T17:19:19.798Z,37.26
2018-03-31T17:21:50.053Z,37.27
2018-03-31T17:24:20.519Z,37.34
2018-03-31T17:26:51.079Z,37.41
2018-03-31T17:29:21.496Z,37.39
2018-03-31T17:31:52.047Z,37.40
2018-03-31T17:34:22.472Z,37.41
2018-03-31T17:36:52.675Z,37.45
2018-03-31T17:39:23.074Z,37.34
2018-03-31T17:41:53.536Z,37.34
2018-03-31T17:44:24.057Z,37.30
2018-03-31T17:46:54.487Z,37.27
2018-03-31T17:49:25.008Z,37.25
2018-03-31T17:51:55.543Z,37.29
2018-03-31T17:54:26.797Z,37.30
2018-03-31T17:56:57.063Z,37.36
2018-03-31T17:59:27.495Z,37.31
2018-03-31T18:01:58.097Z,37.30
2018-03-31T18:04:28.616Z,37.29
2018-03-31T18:06:58.533Z,37.60
2018-03-31T18:09:29.023Z,37.84
2018-03-31T18:11:59.423Z,37.96
2018-03-31T18:16:41.897Z,37.72
2018-03-31T18:19:11.894Z,37.50
2018-03-31T18:21:42.103Z,37.91
2018-03-31T18:24:12.518Z,37.31
2018-03-31T18:26:42.895Z,37.36
2018-03-31T18:29:12.589Z,37.17
2018-03-31T18:31:43.026Z,37.17
2018-03-31T18:34:13.530Z,37.17
2018-03-31T18:36:44.490Z,37.32
2018-03-31T18:39:14.880Z,37.16
2018-03-31T18:41:44.549Z,36.96
2018-03-31T18:44:14.977Z,36.99
2018-03-31T18:46:44.625Z,37.18
2018-03-31T18:49:14.897Z,37.25
2018-03-31T18:51:44.548Z,37.41
2018-03-31T18:54:14.936Z,37.18
2018-03-31T18:56:44.639Z,36.84
2018-03-31T18:59:15.064Z,37.04
2018-03-31T19:01:45.356Z,36.96
2018-03-31T19:04:15.684Z,36.84
2018-03-31T19:06:46.032Z,36.67
2018-03-31T19:09:16.473Z,36.88
2018-03-31T19:11:46.683Z,36.54
2018-03-31T19:14:16.987Z,36.47
2018-03-31T19:16:51.868Z,36.33
2018-03-31T19:19:22.039Z,36.65
2018-03-31T19:21:51.867Z,37.95
2018-03-31T19:24:22.272Z,37.67
2018-03-31T19:26:52.626Z,38.19
2018-03-31T19:29:24.059Z,38.24
2018-03-31T19:31:55.141Z,38.16
2018-03-31T19:34:25.569Z,37.93
2018-03-31T19:36:56.030Z,37.49
2018-03-31T19:39:31.139Z,38.53
2018-03-31T19:42:01.504Z,36.62
2018-03-31T19:44:31.688Z,36.21
2018-03-31T19:47:01.907Z,37.12
2018-03-31T19:49:32.117Z,37.15
2018-03-31T19:52:02.543Z,37.22
2018-03-31T19:54:34.461Z,36.80
2018-03-31T19:57:04.819Z,36.72
2018-03-31T19:59:35.011Z,36.61
2018-03-31T20:02:05.556Z,37.03
2018-03-31T20:04:35.914Z,37.09
2018-03-31T20:07:05.930Z,37.36
2018-03-31T20:09:35.748Z,37.02
2018-03-31T20:12:06.002Z,37.36
2018-03-31T20:14:36.447Z,37.33
2018-03-31T20:17:06.835Z,37.12
2018-03-31T20:19:37.433Z,37.51
2018-03-31T20:22:08.687Z,37.40
2018-03-31T20:24:39.101Z,37.63
2018-03-31T20:27:09.527Z,37.57
2018-03-31T20:29:39.926Z,38.12
2018-03-31T20:32:09.561Z,37.51
2018-03-31T20:34:40.038Z,37.73
2018-03-31T20:37:10.557Z,38.53
2018-03-31T20:39:41.125Z,38.07
2018-03-31T20:42:11.540Z,38.12
2018-03-31T20:44:42.058Z,37.97
2018-03-31T20:47:12.572Z,37.96
2018-03-31T20:49:43.084Z,38.25
2018-03-31T20:52:13.644Z,38.05
2018-03-31T20:54:44.107Z,38.00
2018-03-31T20:57:16.020Z,38.18
2018-03-31T20:59:45.672Z,38.22
2018-03-31T21:02:16.027Z,38.19
2018-03-31T21:04:46.115Z,38.42
2018-03-31T21:07:16.637Z,38.75
2018-03-31T21:09:47.196Z,38.34
2018-03-31T21:12:19.400Z,38.59
2018-03-31T21:14:51.005Z,38.67
2018-03-31T21:17:20.890Z,38.98
2018-03-31T21:19:51.006Z,38.62
2018-03-31T21:22:20.891Z,38.65
2018-03-31T21:24:51.114Z,38.82
2018-03-31T21:27:21.512Z,39.05
2018-03-31T21:29:51.909Z,39.24
2018-03-31T21:32:21.601Z,39.14
2018-03-31T21:34:53.179Z,39.25
2018-03-31T21:37:24.118Z,39.30
2018-03-31T21:39:54.506Z,39.40
2018-03-31T21:42:24.965Z,39.45
2018-03-31T21:44:55.020Z,39.56
2018-03-31T21:47:25.544Z,39.85
2018-03-31T21:49:55.941Z,39.71
2018-03-31T21:52:25.662Z,39.71
2018-03-31T21:54:55.951Z,39.73
2018-03-31T21:57:26.200Z,39.67
2018-03-31T21:59:56.888Z,40.32
2018-03-31T22:02:27.048Z,39.85
2018-03-31T22:04:57.554Z,39.84
2018-03-31T22:07:27.941Z,39.87
2018-03-31T22:09:58.471Z,39.83
2018-03-31T22:12:28.859Z,39.88
2018-03-31T22:15:04.115Z,39.81
2018-03-31T22:17:34.554Z,39.83
2018-03-31T22:20:05.070Z,39.85
2018-03-31T22:22:34.688Z,39.80
2018-03-31T22:25:05.074Z,39.78
2018-03-31T22:27:35.543Z,40.27
2018-03-31T22:30:06.940Z,40.17
2018-03-31T22:32:36.710Z,40.18
2018-03-31T22:35:07.833Z,40.28
2018-03-31T22:37:38.142Z,40.26
2018-03-31T22:40:08.560Z,40.38
2018-03-31T22:42:38.956Z,40.21
2018-03-31T22:45:08.639Z,39.99
2018-03-31T22:47:39.027Z,39.98
2018-03-31T22:50:08.649Z,39.96
2018-03-31T22:52:39.952Z,39.74
2018-03-31T22:55:09.705Z,39.82
2018-03-31T22:57:40.912Z,39.81
2018-03-31T23:00:11.130Z,39.70
2018-03-31T23:02:41.600Z,40.04
2018-03-31T23:05:12.957Z,39.78
2018-03-31T23:07:42.668Z,40.06
2018-03-31T23:10:16.010Z,39.57
2018-03-31T23:12:47.392Z,39.77
2018-03-31T23:15:17.667Z,39.21
2018-03-31T23:17:49.095Z,39.50
2018-03-31T23:20:19.561Z,39.54
2018-03-31T23:22:50.666Z,39.51
2018-03-31T23:25:20.592Z,39.67
2018-03-31T23:27:51.926Z,38.87
2018-03-31T23:30:22.122Z,38.78
2018-03-31T23:32:53.210Z,38.36
2018-03-31T23:35:23.637Z,38.30
2018-03-31T23:37:54.928Z,38.97
2018-03-31T23:40:25.025Z,39.06
2018-03-31T23:42:54.668Z,39.87
2018-03-31T23:45:26.281Z,39.56
2018-03-31T23:47:56.547Z,39.92
2018-03-31T23:50:26.881Z,39.92
2018-03-31T23:52:58.156Z,39.67
2018-03-31T23:55:28.703Z,39.06
2018-03-31T23:58:00.422Z,38.50
